sensor_id;sensor_type;location;lat;lon;timestamp;pressure;altitude;pressure_sealevel;temperature;humidity
63006;BME280;53704;52.532;6.426;2024-03-22T00:00:42;102036.97;;;8.46;100.00
63006;BME280;53704;52.532;6.426;2024-03-22T00:03:07;102041.13;;;8.50;100.00
63006;BME280;53704;52.532;6.426;2024-03-22T00:05:33;102036.66;;;8.62;100.00
63006;BME280;53704;52.532;6.426;2024-03-22T00:07:58;102032.13;;;8.62;100.00
63006;BME280;53704;52.532;6.426;2024-03-22T00:10:26;102021.50;;;8.61;100.00
63006;BME280;53704;52.532;6.426;2024-03-22T00:12:51;102011.13;;;8.67;100.00
63006;BME280;53704;52.532;6.426;2024-03-22T00:15:17;102011.00;;;8.80;100.00
63006;BME280;53704;52.532;6.426;2024-03-22T00:17:44;102014.03;;;8.76;100.00
63006;BME280;53704;52.532;6.426;2024-03-22T00:20:09;102015.75;;;8.77;100.00
63006;BME280;53704;52.532;6.426;2024-03-22T00:22:35;102007.34;;;8.70;100.00
63006;BME280;53704;52.532;6.426;2024-03-22T00:25:00;102003.31;;;8.76;100.00
63006;BME280;53704;52.532;6.426;2024-03-22T00:27:29;101995.75;;;8.81;100.00
63006;BME280;53704;52.532;6.426;2024-03-22T00:29:54;101991.81;;;8.85;100.00
63006;BME280;53704;52.532;6.426;2024-03-22T00:32:19;101996.47;;;8.94;100.00
63006;BME280;53704;52.532;6.426;2024-03-22T00:34:45;101993.44;;;8.87;100.00
63006;BME280;53704;52.532;6.426;2024-03-22T00:37:11;101998.66;;;8.89;100.00
63006;BME280;53704;52.532;6.426;2024-03-22T00:39:36;101989.16;;;8.85;100.00
63006;BME280;53704;52.532;6.426;2024-03-22T00:42:02;101991.81;;;8.85;100.00
63006;BME280;53704;52.532;6.426;2024-03-22T00:44:28;101983.66;;;8.86;100.00
63006;BME280;53704;52.532;6.426;2024-03-22T00:46:53;101978.88;;;8.90;100.00
63006;BME280;53704;52.532;6.426;2024-03-22T00:49:19;101977.03;;;9.02;100.00
63006;BME280;53704;52.532;6.426;2024-03-22T00:51:44;101967.72;;;9.06;100.00
63006;BME280;53704;52.532;6.426;2024-03-22T00:54:10;101967.63;;;8.96;100.00
63006;BME280;53704;52.532;6.426;2024-03-22T00:56:37;101969.00;;;8.91;100.00
63006;BME280;53704;52.532;6.426;2024-03-22T00:59:02;101964.31;;;9.04;100.00
63006;BME280;53704;52.532;6.426;2024-03-22T01:01:28;101954.66;;;9.13;100.00
63006;BME280;53704;52.532;6.426;2024-03-22T01:03:53;101948.03;;;9.17;100.00
63006;BME280;53704;52.532;6.426;2024-03-22T01:06:19;101930.94;;;9.18;100.00
63006;BME280;53704;52.532;6.426;2024-03-22T01:08:50;101929.41;;;9.04;100.00
63006;BME280;53704;52.532;6.426;2024-03-22T01:11:17;101932.44;;;9.11;100.00
63006;BME280;53704;52.532;6.426;2024-03-22T01:13:43;101923.16;;;9.15;100.00
63006;BME280;53704;52.532;6.426;2024-03-22T01:16:09;101926.28;;;9.20;100.00
63006;BME280;53704;52.532;6.426;2024-03-22T01:18:36;101930.69;;;9.21;100.00
63006;BME280;53704;52.532;6.426;2024-03-22T01:21:02;101919.25;;;9.19;100.00
63006;BME280;53704;52.532;6.426;2024-03-22T01:23:28;101926.50;;;9.28;100.00
63006;BME280;53704;52.532;6.426;2024-03-22T01:25:53;101921.88;;;9.30;100.00
63006;BME280;53704;52.532;6.426;2024-03-22T01:28:20;101915.03;;;9.26;100.00
63006;BME280;53704;52.532;6.426;2024-03-22T01:30:45;101913.06;;;9.28;100.00
63006;BME280;53704;52.532;6.426;2024-03-22T01:33:11;101913.69;;;9.32;100.00
63006;BME280;53704;52.532;6.426;2024-03-22T01:35:37;101906.34;;;9.34;100.00
63006;BME280;53704;52.532;6.426;2024-03-22T01:38:09;101899.66;;;9.49;100.00
63006;BME280;53704;52.532;6.426;2024-03-22T01:40:34;101902.41;;;9.38;100.00
63006;BME280;53704;52.532;6.426;2024-03-22T01:43:00;101904.47;;;9.46;100.00
63006;BME280;53704;52.532;6.426;2024-03-22T01:45:32;101895.91;;;9.40;100.00
63006;BME280;53704;52.532;6.426;2024-03-22T01:47:58;101899.09;;;9.46;100.00
63006;BME280;53704;52.532;6.426;2024-03-22T01:50:24;101888.97;;;9.38;100.00
63006;BME280;53704;52.532;6.426;2024-03-22T01:52:51;101881.69;;;9.50;100.00
63006;BME280;53704;52.532;6.426;2024-03-22T01:55:16;101878.28;;;9.48;100.00
63006;BME280;53704;52.532;6.426;2024-03-22T01:57:43;101881.56;;;9.51;100.00
63006;BME280;53704;52.532;6.426;2024-03-22T02:00:09;101884.69;;;9.56;100.00
63006;BME280;53704;52.532;6.426;2024-03-22T02:02:34;101882.09;;;9.45;100.00
63006;BME280;53704;52.532;6.426;2024-03-22T02:05:15;101885.16;;;9.40;100.00
63006;BME280;53704;52.532;6.426;2024-03-22T02:07:42;101875.34;;;9.51;100.00
63006;BME280;53704;52.532;6.426;2024-03-22T02:10:09;101878.16;;;9.49;100.00
63006;BME280;53704;52.532;6.426;2024-03-22T02:12:38;101873.56;;;9.61;100.00
63006;BME280;53704;52.532;6.426;2024-03-22T02:15:05;101870.88;;;9.61;100.00
63006;BME280;53704;52.532;6.426;2024-03-22T02:17:32;101867.72;;;9.56;100.00
63006;BME280;53704;52.532;6.426;2024-03-22T02:19:59;101867.72;;;9.56;100.00
63006;BME280;53704;52.532;6.426;2024-03-22T02:22:24;101867.72;;;9.56;100.00
63006;BME280;53704;52.532;6.426;2024-03-22T02:24:49;101854.59;;;9.63;100.00
63006;BME280;53704;52.532;6.426;2024-03-22T02:27:15;101855.47;;;9.63;100.00
63006;BME280;53704;52.532;6.426;2024-03-22T02:29:41;101862.28;;;9.67;100.00
63006;BME280;53704;52.532;6.426;2024-03-22T02:32:06;101857.16;;;9.64;100.00
63006;BME280;53704;52.532;6.426;2024-03-22T02:34:32;101850.75;;;9.55;100.00
63006;BME280;53704;52.532;6.426;2024-03-22T02:36:57;101836.66;;;9.63;100.00
63006;BME280;53704;52.532;6.426;2024-03-22T02:39:22;101839.34;;;9.63;100.00
63006;BME280;53704;52.532;6.426;2024-03-22T02:41:48;101824.50;;;9.69;100.00
63006;BME280;53704;52.532;6.426;2024-03-22T02:44:13;101832.31;;;9.72;100.00
63006;BME280;53704;52.532;6.426;2024-03-22T02:46:39;101825.81;;;9.74;100.00
63006;BME280;53704;52.532;6.426;2024-03-22T02:49:04;101817.75;;;9.74;100.00
63006;BME280;53704;52.532;6.426;2024-03-22T02:51:31;101809.56;;;9.76;100.00
63006;BME280;53704;52.532;6.426;2024-03-22T02:53:57;101799.91;;;9.73;100.00
63006;BME280;53704;52.532;6.426;2024-03-22T02:56:22;101794.09;;;9.68;100.00
63006;BME280;53704;52.532;6.426;2024-03-22T02:58:51;101796.78;;;9.68;100.00
63006;BME280;53704;52.532;6.426;2024-03-22T03:01:16;101790.56;;;9.68;100.00
63006;BME280;53704;52.532;6.426;2024-03-22T03:03:42;101787.00;;;9.67;100.00
63006;BME280;53704;52.532;6.426;2024-03-22T03:06:07;101782.31;;;9.69;100.00
63006;BME280;53704;52.532;6.426;2024-03-22T03:08:34;101772.88;;;9.75;100.00
63006;BME280;53704;52.532;6.426;2024-03-22T03:10:59;101760.00;;;9.78;100.00
63006;BME280;53704;52.532;6.426;2024-03-22T03:13:25;101761.00;;;9.77;100.00
63006;BME280;53704;52.532;6.426;2024-03-22T03:15:51;101758.50;;;9.86;100.00
63006;BME280;53704;52.532;6.426;2024-03-22T03:18:16;101757.44;;;9.77;100.00
63006;BME280;53704;52.532;6.426;2024-03-22T03:20:42;101743.03;;;9.78;100.00
63006;BME280;53704;52.532;6.426;2024-03-22T03:23:08;101732.53;;;9.75;100.00
63006;BME280;53704;52.532;6.426;2024-03-22T03:25:33;101738.91;;;9.74;100.00
63006;BME280;53704;52.532;6.426;2024-03-22T03:27:59;101723.94;;;9.81;100.00
63006;BME280;53704;52.532;6.426;2024-03-22T03:30:27;101719.13;;;9.85;100.00
63006;BME280;53704;52.532;6.426;2024-03-22T03:32:53;101712.47;;;9.79;100.00
63006;BME280;53704;52.532;6.426;2024-03-22T03:35:18;101705.81;;;9.83;100.00
63006;BME280;53704;52.532;6.426;2024-03-22T03:37:43;101702.16;;;9.84;100.00
63006;BME280;53704;52.532;6.426;2024-03-22T03:40:09;101701.44;;;9.82;100.00
63006;BME280;53704;52.532;6.426;2024-03-22T03:42:35;101701.47;;;9.92;100.00
63006;BME280;53704;52.532;6.426;2024-03-22T03:45:00;101707.53;;;9.94;100.00
63006;BME280;53704;52.532;6.426;2024-03-22T03:47:26;101705.97;;;9.91;100.00
63006;BME280;53704;52.532;6.426;2024-03-22T03:49:51;101706.13;;;9.90;100.00
63006;BME280;53704;52.532;6.426;2024-03-22T03:52:17;101696.63;;;9.86;100.00
63006;BME280;53704;52.532;6.426;2024-03-22T03:54:43;101691.53;;;9.83;100.00
63006;BME280;53704;52.532;6.426;2024-03-22T03:57:08;101693.09;;;9.85;100.00
63006;BME280;53704;52.532;6.426;2024-03-22T03:59:36;101695.22;;;9.91;100.00
63006;BME280;53704;52.532;6.426;2024-03-22T04:02:02;101691.38;;;9.84;100.00
63006;BME280;53704;52.532;6.426;2024-03-22T04:04:27;101687.88;;;9.84;100.00
63006;BME280;53704;52.532;6.426;2024-03-22T04:06:53;101681.94;;;9.90;100.00
63006;BME280;53704;52.532;6.426;2024-03-22T04:09:18;101683.03;;;9.77;100.00
63006;BME280;53704;52.532;6.426;2024-03-22T04:11:44;101686.66;;;9.67;100.00
63006;BME280;53704;52.532;6.426;2024-03-22T04:14:09;101683.03;;;9.77;100.00
63006;BME280;53704;52.532;6.426;2024-03-22T04:16:35;101689.66;;;9.73;100.00
63006;BME280;53704;52.532;6.426;2024-03-22T04:19:01;101693.78;;;9.77;100.00
63006;BME280;53704;52.532;6.426;2024-03-22T04:21:26;101691.09;;;9.77;100.00
63006;BME280;53704;52.532;6.426;2024-03-22T04:23:52;101687.13;;;9.82;100.00
63006;BME280;53704;52.532;6.426;2024-03-22T04:26:17;101694.50;;;9.80;100.00
63006;BME280;53704;52.532;6.426;2024-03-22T04:28:44;101697.88;;;9.82;100.00
63006;BME280;53704;52.532;6.426;2024-03-22T04:31:10;101694.06;;;9.74;100.00
63006;BME280;53704;52.532;6.426;2024-03-22T04:33:37;101690.38;;;9.75;100.00
63006;BME280;53704;52.532;6.426;2024-03-22T04:36:03;101700.56;;;9.82;100.00
63006;BME280;53704;52.532;6.426;2024-03-22T04:38:30;101684.72;;;9.78;100.00
63006;BME280;53704;52.532;6.426;2024-03-22T04:40:56;101676.22;;;9.83;100.00
63006;BME280;53704;52.532;6.426;2024-03-22T04:43:24;101683.31;;;9.84;100.00
63006;BME280;53704;52.532;6.426;2024-03-22T04:45:51;101682.34;;;9.85;100.00
63006;BME280;53704;52.532;6.426;2024-03-22T04:48:19;101685.59;;;9.79;100.00
63006;BME280;53704;52.532;6.426;2024-03-22T04:50:45;101680.78;;;9.83;100.00
63006;BME280;53704;52.532;6.426;2024-03-22T04:53:13;101687.41;;;9.78;100.00
63006;BME280;53704;52.532;6.426;2024-03-22T04:55:38;101692.50;;;9.82;100.00
63006;BME280;53704;52.532;6.426;2024-03-22T04:58:11;101695.06;;;9.83;100.00
63006;BME280;53704;52.532;6.426;2024-03-22T05:00:37;101687.25;;;9.70;100.00
63006;BME280;53704;52.532;6.426;2024-03-22T05:03:02;101680.50;;;9.86;100.00
63006;BME280;53704;52.532;6.426;2024-03-22T05:05:28;101681.88;;;9.80;100.00
63006;BME280;53704;52.532;6.426;2024-03-22T05:07:55;101682.16;;;9.77;100.00
63006;BME280;53704;52.532;6.426;2024-03-22T05:10:20;101676.22;;;9.83;100.00
63006;BME280;53704;52.532;6.426;2024-03-22T05:12:46;101675.38;;;9.73;100.00
63006;BME280;53704;52.532;6.426;2024-03-22T05:15:11;101671.69;;;9.74;100.00
63006;BME280;53704;52.532;6.426;2024-03-22T05:17:37;101675.09;;;9.76;100.00
63006;BME280;53704;52.532;6.426;2024-03-22T05:20:06;101664.06;;;9.79;100.00
63006;BME280;53704;52.532;6.426;2024-03-22T05:22:34;101660.09;;;9.73;100.00
63006;BME280;53704;52.532;6.426;2024-03-22T05:24:59;101661.78;;;9.74;100.00
63006;BME280;53704;52.532;6.426;2024-03-22T05:27:25;101654.97;;;9.70;100.00
63006;BME280;53704;52.532;6.426;2024-03-22T05:29:51;101654.97;;;9.70;100.00
63006;BME280;53704;52.532;6.426;2024-03-22T05:32:17;101656.97;;;9.68;100.00
63006;BME280;53704;52.532;6.426;2024-03-22T05:34:43;101651.03;;;9.65;100.00
63006;BME280;53704;52.532;6.426;2024-03-22T05:37:08;101645.38;;;9.68;100.00
63006;BME280;53704;52.532;6.426;2024-03-22T05:39:36;101653.84;;;9.63;100.00
63006;BME280;53704;52.532;6.426;2024-03-22T05:42:06;101644.47;;;9.57;100.00
63006;BME280;53704;52.532;6.426;2024-03-22T05:44:32;101641.38;;;9.62;100.00
63006;BME280;53704;52.532;6.426;2024-03-22T05:46:57;101650.41;;;9.61;100.00
63006;BME280;53704;52.532;6.426;2024-03-22T05:49:23;101642.50;;;9.69;100.00
63006;BME280;53704;52.532;6.426;2024-03-22T05:51:48;101653.25;;;9.69;100.00
63006;BME280;53704;52.532;6.426;2024-03-22T05:54:26;101653.56;;;9.66;100.00
63006;BME280;53704;52.532;6.426;2024-03-22T05:56:53;101647.88;;;9.59;100.00
63006;BME280;53704;52.532;6.426;2024-03-22T05:59:18;101638.84;;;9.70;100.00
63006;BME280;53704;52.532;6.426;2024-03-22T06:01:44;101638.97;;;9.69;100.00
63006;BME280;53704;52.532;6.426;2024-03-22T06:04:09;101645.03;;;9.61;100.00
63006;BME280;53704;52.532;6.426;2024-03-22T06:06:35;101646.22;;;9.68;100.00
63006;BME280;53704;52.532;6.426;2024-03-22T06:09:02;101634.56;;;9.58;100.00
63006;BME280;53704;52.532;6.426;2024-03-22T06:11:32;101639.41;;;9.64;100.00
63006;BME280;53704;52.532;6.426;2024-03-22T06:13:58;101643.38;;;9.60;100.00
63006;BME280;53704;52.532;6.426;2024-03-22T06:16:24;101635.44;;;9.58;100.00
63006;BME280;53704;52.532;6.426;2024-03-22T06:18:50;101642.50;;;9.59;100.00
63006;BME280;53704;52.532;6.426;2024-03-22T06:21:15;101643.75;;;9.46;100.00
63006;BME280;53704;52.532;6.426;2024-03-22T06:23:48;101654.19;;;9.49;100.00
63006;BME280;53704;52.532;6.426;2024-03-22T06:26:14;101653.31;;;9.38;100.00
63006;BME280;53704;52.532;6.426;2024-03-22T06:28:40;101653.50;;;9.47;100.00
63006;BME280;53704;52.532;6.426;2024-03-22T06:31:05;101647.53;;;9.43;100.00
63006;BME280;53704;52.532;6.426;2024-03-22T06:33:31;101652.91;;;9.33;100.00
63006;BME280;53704;52.532;6.426;2024-03-22T06:35:57;101651.94;;;9.44;100.00
63006;BME280;53704;52.532;6.426;2024-03-22T06:38:22;101650.91;;;9.35;100.00
63006;BME280;53704;52.532;6.426;2024-03-22T06:40:47;101640.69;;;9.29;100.00
63006;BME280;53704;52.532;6.426;2024-03-22T06:43:13;101651.88;;;9.34;100.00
63006;BME280;53704;52.532;6.426;2024-03-22T06:45:39;101653.75;;;9.44;100.00
63006;BME280;53704;52.532;6.426;2024-03-22T06:48:04;101659.28;;;9.42;100.00
63006;BME280;53704;52.532;6.426;2024-03-22T06:50:30;101647.69;;;9.41;100.00
63006;BME280;53704;52.532;6.426;2024-03-22T06:52:55;101653.06;;;9.41;100.00
63006;BME280;53704;52.532;6.426;2024-03-22T06:55:21;101649.81;;;9.48;100.00
63006;BME280;53704;52.532;6.426;2024-03-22T06:57:47;101645.56;;;9.45;100.00
63006;BME280;53704;52.532;6.426;2024-03-22T07:00:14;101636.94;;;9.41;100.00
63006;BME280;53704;52.532;6.426;2024-03-22T07:02:40;101634.00;;;9.54;100.00
63006;BME280;53704;52.532;6.426;2024-03-22T07:05:06;101634.69;;;9.56;100.00
63006;BME280;53704;52.532;6.426;2024-03-22T07:07:32;101636.66;;;9.45;100.00
63006;BME280;53704;52.532;6.426;2024-03-22T07:09:58;101619.56;;;9.46;100.00
63006;BME280;53704;52.532;6.426;2024-03-22T07:12:23;101619.56;;;9.46;100.00
63006;BME280;53704;52.532;6.426;2024-03-22T07:14:50;101610.50;;;9.47;100.00
63006;BME280;53704;52.532;6.426;2024-03-22T07:17:17;101602.16;;;9.50;100.00
63006;BME280;53704;52.532;6.426;2024-03-22T07:19:43;101603.31;;;9.57;100.00
63006;BME280;53704;52.532;6.426;2024-03-22T07:22:08;101612.19;;;9.48;100.00
63006;BME280;53704;52.532;6.426;2024-03-22T07:24:34;101603.31;;;9.57;100.00
63006;BME280;53704;52.532;6.426;2024-03-22T07:26:59;101603.13;;;9.49;100.00
63006;BME280;53704;52.532;6.426;2024-03-22T07:29:25;101608.56;;;9.58;100.00
63006;BME280;53704;52.532;6.426;2024-03-22T07:31:50;101603.19;;;9.58;100.00
63006;BME280;53704;52.532;6.426;2024-03-22T07:34:17;101604.59;;;9.63;100.00
63006;BME280;53704;52.532;6.426;2024-03-22T07:36:43;101607.72;;;9.68;100.00
63006;BME280;53704;52.532;6.426;2024-03-22T07:39:09;101601.47;;;9.67;100.00
63006;BME280;53704;52.532;6.426;2024-03-22T07:41:35;101607.28;;;9.72;100.00
63006;BME280;53704;52.532;6.426;2024-03-22T07:44:01;101602.03;;;9.61;100.00
63006;BME280;53704;52.532;6.426;2024-03-22T07:46:28;101608.16;;;9.73;100.00
63006;BME280;53704;52.532;6.426;2024-03-22T07:48:55;101610.69;;;9.65;100.00
63006;BME280;53704;52.532;6.426;2024-03-22T07:51:20;101603.59;;;9.64;100.00
63006;BME280;53704;52.532;6.426;2024-03-22T07:53:46;101603.06;;;9.80;100.00
63006;BME280;53704;52.532;6.426;2024-03-22T07:56:17;101598.78;;;9.67;100.00
63006;BME280;53704;52.532;6.426;2024-03-22T07:58:45;101610.69;;;9.74;100.00
63006;BME280;53704;52.532;6.426;2024-03-22T08:01:13;101606.59;;;9.80;100.00
63006;BME280;53704;52.532;6.426;2024-03-22T08:03:39;101609.72;;;9.95;100.00
63006;BME280;53704;52.532;6.426;2024-03-22T08:06:04;101595.97;;;9.78;100.00
63006;BME280;53704;52.532;6.426;2024-03-22T08:08:30;101594.44;;;9.86;100.00
63006;BME280;53704;52.532;6.426;2024-03-22T08:11:02;101600.38;;;9.99;100.00
63006;BME280;53704;52.532;6.426;2024-03-22T08:13:27;101593.31;;;9.98;100.00
63006;BME280;53704;52.532;6.426;2024-03-22T08:15:53;101605.19;;;9.95;100.00
63006;BME280;53704;52.532;6.426;2024-03-22T08:18:19;101600.38;;;9.99;100.00
63006;BME280;53704;52.532;6.426;2024-03-22T08:20:45;101605.19;;;9.95;100.00
63006;BME280;53704;52.532;6.426;2024-03-22T08:23:10;101606.63;;;9.90;100.00
63006;BME280;53704;52.532;6.426;2024-03-22T08:25:35;101605.34;;;9.94;100.00
63006;BME280;53704;52.532;6.426;2024-03-22T08:28:02;101605.75;;;9.99;100.00
63006;BME280;53704;52.532;6.426;2024-03-22T08:30:27;101611.41;;;9.96;100.00
63006;BME280;53704;52.532;6.426;2024-03-22T08:32:53;101605.19;;;9.95;100.00
63006;BME280;53704;52.532;6.426;2024-03-22T08:35:20;101611.69;;;9.93;100.00
63006;BME280;53704;52.532;6.426;2024-03-22T08:37:46;101622.44;;;9.93;100.00
63006;BME280;53704;52.532;6.426;2024-03-22T08:40:12;101609.16;;;9.91;100.00
63006;BME280;53704;52.532;6.426;2024-03-22T08:42:39;101605.63;;;10.01;100.00
63006;BME280;53704;52.532;6.426;2024-03-22T08:45:05;101608.72;;;9.96;100.00
63006;BME280;53704;52.532;6.426;2024-03-22T08:47:32;101603.19;;;9.98;100.00
63006;BME280;53704;52.532;6.426;2024-03-22T08:49:59;101608.88;;;9.94;100.00
63006;BME280;53704;52.532;6.426;2024-03-22T08:52:25;101603.06;;;9.80;100.00
63006;BME280;53704;52.532;6.426;2024-03-22T08:54:52;101602.22;;;9.89;100.00
63006;BME280;53704;52.532;6.426;2024-03-22T08:57:17;101605.91;;;9.88;100.00
63006;BME280;53704;52.532;6.426;2024-03-22T08:59:43;101603.19;;;9.78;100.00
63006;BME280;53704;52.532;6.426;2024-03-22T09:02:08;101606.03;;;9.76;100.00
63006;BME280;53704;52.532;6.426;2024-03-22T09:04:34;101606.59;;;9.80;100.00
63006;BME280;53704;52.532;6.426;2024-03-22T09:06:59;101602.19;;;9.69;100.00
63006;BME280;53704;52.532;6.426;2024-03-22T09:09:26;101600.34;;;9.60;100.00
63006;BME280;53704;52.532;6.426;2024-03-22T09:11:52;101600.91;;;9.54;100.00
63006;BME280;53704;52.532;6.426;2024-03-22T09:14:18;101605.44;;;9.63;100.00
63006;BME280;53704;52.532;6.426;2024-03-22T09:16:43;101605.44;;;9.63;100.00
63006;BME280;53704;52.532;6.426;2024-03-22T09:19:09;101611.38;;;9.57;100.00
63006;BME280;53704;52.532;6.426;2024-03-22T09:21:36;101616.75;;;9.57;100.00
63006;BME280;53704;52.532;6.426;2024-03-22T09:24:02;101611.66;;;9.54;100.00
63006;BME280;53704;52.532;6.426;2024-03-22T09:26:32;101599.34;;;9.61;100.00
63006;BME280;53704;52.532;6.426;2024-03-22T09:28:58;101602.72;;;9.53;100.00
63006;BME280;53704;52.532;6.426;2024-03-22T09:31:24;101605.69;;;9.50;100.00
63006;BME280;53704;52.532;6.426;2024-03-22T09:33:49;101610.22;;;9.59;100.00
63006;BME280;53704;52.532;6.426;2024-03-22T09:36:15;101606.56;;;9.51;100.00
63006;BME280;53704;52.532;6.426;2024-03-22T09:38:41;101609.22;;;9.41;100.00
63006;BME280;53704;52.532;6.426;2024-03-22T09:41:07;101608.50;;;9.49;100.00
63006;BME280;53704;52.532;6.426;2024-03-22T09:43:33;101621.78;;;9.40;100.00
63006;BME280;53704;52.532;6.426;2024-03-22T09:46:00;101614.88;;;9.38;100.00
63006;BME280;53704;52.532;6.426;2024-03-22T09:48:26;101609.38;;;9.49;100.00
63006;BME280;53704;52.532;6.426;2024-03-22T09:50:55;101609.63;;;9.36;100.00
63006;BME280;53704;52.532;6.426;2024-03-22T09:53:21;101606.06;;;9.36;100.00
63006;BME280;53704;52.532;6.426;2024-03-22T09:55:48;101599.75;;;9.47;100.00
63006;BME280;53704;52.532;6.426;2024-03-22T09:58:15;101607.78;;;9.37;100.00
63006;BME280;53704;52.532;6.426;2024-03-22T10:00:43;101604.84;;;9.50;100.00
63006;BME280;53704;52.532;6.426;2024-03-22T10:03:12;101596.91;;;9.48;100.00
63006;BME280;53704;52.532;6.426;2024-03-22T10:05:39;101597.22;;;9.55;100.00
63006;BME280;53704;52.532;6.426;2024-03-22T10:08:05;101608.47;;;9.39;100.00
63006;BME280;53704;52.532;6.426;2024-03-22T10:10:33;101601.44;;;9.48;100.00
63006;BME280;53704;52.532;6.426;2024-03-22T10:13:03;101605.44;;;9.63;100.00
63006;BME280;53704;52.532;6.426;2024-03-22T10:15:30;101599.50;;;9.69;100.00
63006;BME280;53704;52.532;6.426;2024-03-22T10:17:57;101597.47;;;9.52;100.00
63006;BME280;53704;52.532;6.426;2024-03-22T10:20:22;101597.63;;;9.50;100.00
63006;BME280;53704;52.532;6.426;2024-03-22T10:23:00;101602.84;;;9.52;100.00
63006;BME280;53704;52.532;6.426;2024-03-22T10:25:26;101597.94;;;9.57;100.00
63006;BME280;53704;52.532;6.426;2024-03-22T10:27:55;101599.06;;;9.64;100.00
63006;BME280;53704;52.532;6.426;2024-03-22T10:30:22;101593.81;;;9.53;100.00
63006;BME280;53704;52.532;6.426;2024-03-22T10:32:48;101585.47;;;9.56;100.00
63006;BME280;53704;52.532;6.426;2024-03-22T10:35:15;101596.50;;;9.63;100.00
63006;BME280;53704;52.532;6.426;2024-03-22T10:37:40;101594.69;;;9.63;100.00
63006;BME280;53704;52.532;6.426;2024-03-22T10:40:07;101588.19;;;9.66;100.00
63006;BME280;53704;52.532;6.426;2024-03-22T10:42:35;101593.13;;;9.60;100.00
63006;BME280;53704;52.532;6.426;2024-03-22T10:45:05;101587.34;;;9.65;100.00
63006;BME280;53704;52.532;6.426;2024-03-22T10:47:32;101591.72;;;9.66;100.00
63006;BME280;53704;52.532;6.426;2024-03-22T10:50:18;101592.44;;;9.68;100.00
63006;BME280;53704;52.532;6.426;2024-03-22T10:52:54;101586.38;;;9.76;100.00
63006;BME280;53704;52.532;6.426;2024-03-22T10:55:28;101587.47;;;9.54;100.00
63006;BME280;53704;52.532;6.426;2024-03-22T10:57:56;101588.31;;;9.64;100.00
63006;BME280;53704;52.532;6.426;2024-03-22T11:00:34;101580.94;;;9.47;100.00
63006;BME280;53704;52.532;6.426;2024-03-22T11:03:02;101578.66;;;9.52;100.00
63006;BME280;53704;52.532;6.426;2024-03-22T11:05:28;101575.44;;;9.58;100.00
63006;BME280;53704;52.532;6.426;2024-03-22T11:08:05;101577.72;;;9.72;100.00
63006;BME280;53704;52.532;6.426;2024-03-22T11:10:34;101579.69;;;9.70;100.00
63006;BME280;53704;52.532;6.426;2024-03-22T11:13:04;101580.66;;;9.69;100.00
63006;BME280;53704;52.532;6.426;2024-03-22T11:15:30;101578.44;;;9.65;100.00
63006;BME280;53704;52.532;6.426;2024-03-22T11:17:56;101567.81;;;9.73;100.00
63006;BME280;53704;52.532;6.426;2024-03-22T11:20:22;101566.38;;;9.78;100.00
63006;BME280;53704;52.532;6.426;2024-03-22T11:22:48;101567.53;;;9.95;100.00
63006;BME280;53704;52.532;6.426;2024-03-22T11:25:14;101551.97;;;9.80;100.00
63006;BME280;53704;52.532;6.426;2024-03-22T11:27:39;101556.22;;;10.02;100.00
63006;BME280;53704;52.532;6.426;2024-03-22T11:30:05;101555.22;;;10.03;100.00
63006;BME280;53704;52.532;6.426;2024-03-22T11:32:33;101558.78;;;9.93;100.00
63006;BME280;53704;52.532;6.426;2024-03-22T11:35:01;101545.31;;;9.93;100.00
63006;BME280;53704;52.532;6.426;2024-03-22T11:37:27;101552.09;;;9.98;100.00
63006;BME280;53704;52.532;6.426;2024-03-22T11:39:52;101557.34;;;9.89;100.00
63006;BME280;53704;52.532;6.426;2024-03-22T11:42:18;101556.19;;;9.72;100.00
63006;BME280;53704;52.532;6.426;2024-03-22T11:44:44;101547.72;;;9.96;100.00
63006;BME280;53704;52.532;6.426;2024-03-22T11:47:10;101548.69;;;10.05;100.00
63006;BME280;53704;52.532;6.426;2024-03-22T11:49:37;101547.03;;;10.04;100.00
63006;BME280;53704;52.532;6.426;2024-03-22T11:52:03;101542.91;;;10.00;100.00
63006;BME280;53704;52.532;6.426;2024-03-22T11:54:28;101542.06;;;9.90;100.00
63006;BME280;53704;52.532;6.426;2024-03-22T11:56:57;101549.13;;;9.91;100.00
63006;BME280;53704;52.532;6.426;2024-03-22T11:59:22;101538.38;;;10.01;100.00
63006;BME280;53704;52.532;6.426;2024-03-22T12:01:48;101535.38;;;10.13;100.00
63006;BME280;53704;52.532;6.426;2024-03-22T12:04:14;101525.63;;;10.12;100.00
63006;BME280;53704;52.532;6.426;2024-03-22T12:06:49;101524.59;;;10.13;100.00
63006;BME280;53704;52.532;6.426;2024-03-22T12:09:15;101523.63;;;10.14;100.00
63006;BME280;53704;52.532;6.426;2024-03-22T12:11:41;101515.09;;;10.29;100.00
63006;BME280;53704;52.532;6.426;2024-03-22T12:14:07;101521.63;;;10.17;100.00
63006;BME280;53704;52.532;6.426;2024-03-22T12:16:32;101518.69;;;10.00;100.00
63006;BME280;53704;52.532;6.426;2024-03-22T12:18:58;101517.13;;;9.98;100.00
63006;BME280;53704;52.532;6.426;2024-03-22T12:21:24;101514.00;;;10.12;100.00
63006;BME280;53704;52.532;6.426;2024-03-22T12:23:50;101521.78;;;10.15;100.00
63006;BME280;53704;52.532;6.426;2024-03-22T12:26:15;101517.38;;;10.24;100.00
63006;BME280;53704;52.532;6.426;2024-03-22T12:28:42;101506.63;;;10.24;100.00
63006;BME280;53704;52.532;6.426;2024-03-22T12:31:09;101502.38;;;10.41;100.00
63006;BME280;53704;52.532;6.426;2024-03-22T12:33:38;101496.16;;;10.21;100.00
63006;BME280;53704;52.532;6.426;2024-03-22T12:36:04;101496.41;;;10.37;100.00
63006;BME280;53704;52.532;6.426;2024-03-22T12:38:30;101493.31;;;10.22;100.00
63006;BME280;53704;52.532;6.426;2024-03-22T12:40:56;101493.75;;;10.18;100.00
63006;BME280;53704;52.532;6.426;2024-03-22T12:43:22;101490.38;;;10.16;100.00
63006;BME280;53704;52.532;6.426;2024-03-22T12:45:47;101486.94;;;10.23;100.00